Latest Weather Observations for Carters Bore

IDQ60801

Issued at 4:22 pm EST Saturday 5 December 2020 (issued every 10 minutes, with the page automatically refreshed every 10 minutes)

About weather observations | Map of weather stations | Latest weather observations for QLD | Other Formats
Station Details ID: 037053 Name: CARTERS BORE Lat: -20.94 Lon: 139.30 Height: 396.0 m
Data from the previous 72 hours. | See also: Recent months at Carters Bore
Date/Time
EST
Temp
°C
App
Temp
°C
Dew
Point
°C
Rel
Hum
%
Delta-T
°C
Wind Press
QNH
hPa
Press
MSL
hPa
Rain since
9am
mm
Dir  Spd
km/h
Gust
km/h
Spd
kts
Gust
kts
05/04:00pm 41.6 40.4 9.7 15 19.2 E 6 13 3 7 - - -
05/03:30pm 41.0 38.4 9.2 15 18.9 NNW 13 24 7 13 - - -
05/03:00pm 41.4 39.0 11.4 17 18.4 W 15 43 8 23 - - -
05/02:30pm 40.9 40.7 11.9 18 17.9 E 4 7 2 4 - - -
05/02:00pm 40.6 38.7 11.7 18 17.8 NNE 13 24 7 13 - - -
05/01:30pm 40.1 37.9 12.1 19 17.3 WNW 15 30 8 16 - - -
05/01:00pm 40.2 39.4 12.9 20 17.1 WNW 9 28 5 15 - - -
05/12:30pm 39.6 37.4 13.2 21 16.5 N 17 39 9 21 - - -
05/12:00pm 38.8 37.3 13.2 21 16.0 N 13 24 7 13 - - 0.0
05/11:30am 37.4 35.8 14.0 24 14.7 WNW 15 30 8 16 - - 0.0
05/11:00am 38.0 37.0 15.7 26 14.4 NW 15 26 8 14 - - 0.0
05/10:30am 36.5 36.5 18.1 33 12.2 NW 15 26 8 14 - - 0.0
05/10:00am 35.3 34.5 18.0 36 11.4 NW 19 30 10 16 - - 0.0
05/09:30am 34.5 34.3 19.3 40 10.2 NW 19 30 10 16 - - 0.0
05/09:00am 33.3 33.1 19.7 44 9.1 NW 20 30 11 16 - - 0.0
05/08:30am 32.7 33.5 20.6 49 8.2 NW 17 26 9 14 - - 0.0
05/08:00am 31.3 31.5 20.6 53 7.2 NNW 20 28 11 15 - - 0.0
05/07:30am 30.8 31.1 20.7 55 6.8 NNW 20 26 11 14 - - 0.0
05/07:00am 29.9 31.0 19.6 54 6.8 N 13 19 7 10 - - 0.0
05/06:30am 29.1 30.0 18.5 52 6.9 N 11 17 6 9 - - 0.0
05/06:00am 29.1 30.3 18.2 51 7.1 N 9 17 5 9 - - 0.0
05/05:30am 29.3 30.1 17.2 48 7.7 NNE 9 13 5 7 - - 0.0
05/05:00am 29.5 29.9 16.3 45 8.3 N 9 11 5 6 - - 0.0
05/04:30am 29.4 29.3 13.2 37 9.8 N 6 9 3 5 - - 0.0
05/04:00am 30.9 30.3 15.7 39 9.6 NNW 13 20 7 11 - - 0.0
05/03:30am 31.6 29.4 10.9 28 12.2 NW 13 22 7 12 - - 0.0
05/03:00am 33.1 31.5 11.6 27 12.8 NNE 11 19 6 10 - - 0.0
05/02:30am 32.6 31.3 11.2 27 12.7 NE 9 13 5 7 - - 0.0
05/02:00am 31.8 30.4 11.0 28 12.2 ENE 9 11 5 6 - - 0.0
05/01:30am 32.1 30.3 10.8 27 12.5 ENE 11 13 6 7 - - 0.0
05/01:00am 32.5 30.6 10.5 26 12.9 ENE 11 13 6 7 - - 0.0
05/12:30am 32.8 31.4 10.8 26 13.0 NE 9 13 5 7 - - 0.0
05/12:00am 33.3 32.0 11.2 26 13.1 NE 9 13 5 7 - - 0.0
 
Date/Time
EST
Temp
°C
App
Temp
°C
Dew
Point
°C
Rel
Hum
%
Delta-T
°C
Wind Press
QNH
hPa
Press
MSL
hPa
Rain since
9am
mm
Dir  Spd
km/h
Gust
km/h
Spd
kts
Gust
kts
04/11:30pm 34.3 32.7 11.4 25 13.7 NE 11 17 6 9 - - 0.0
04/11:00pm 34.7 33.0 11.2 24 14.0 NE 11 17 6 9 - - 0.0
04/10:30pm 35.1 33.3 10.9 23 14.4 NE 11 19 6 10 - - 0.0
04/10:00pm 35.4 33.1 10.4 22 14.8 NE 13 19 7 10 - - 0.0
04/09:30pm 36.0 34.2 10.9 22 15.0 NE 11 17 6 9 - - 0.0
04/09:00pm 36.4 34.7 11.3 22 15.1 NE 11 17 6 9 - - 0.0
04/08:30pm 36.9 34.5 10.2 20 15.9 NE 13 19 7 10 - - 0.0
04/08:00pm 37.5 35.9 11.5 21 15.8 NE 11 19 6 10 - - 0.0
04/07:30pm 38.1 36.0 11.2 20 16.3 NE 13 19 7 10 - - 0.0
04/07:00pm 38.7 35.8 10.9 19 16.8 NE 17 24 9 13 - - 0.0
04/06:30pm 39.7 37.7 10.1 17 17.8 ENE 11 20 6 11 - - 0.0
04/06:00pm 39.7 36.5 10.1 17 17.8 NE 17 26 9 14 - - 0.0
04/05:30pm 40.1 38.2 10.4 17 17.9 ENE 11 19 6 10 - - 0.0
04/05:00pm 40.5 37.8 8.8 15 18.7 E 13 28 7 15 - - 0.0
04/04:30pm 40.9 38.7 9.2 15 18.9 ENE 11 24 6 13 - - 0.0
04/04:00pm 41.1 38.2 8.3 14 19.3 ESE 13 26 7 14 - - 0.0
04/03:30pm 41.5 39.6 7.5 13 19.8 E 7 19 4 10 - - 0.0
04/03:00pm 39.5 37.6 9.0 16 18.0 NNE 9 24 5 13 - - 0.0
04/02:30pm 39.9 38.3 10.2 17 17.9 NNW 9 17 5 9 - - 0.0
04/02:00pm 39.6 38.8 11.7 19 17.1 N 7 20 4 11 - - 0.0
04/01:30pm 39.8 37.8 12.6 20 16.9 E 15 32 8 17 - - 0.0
04/01:00pm 38.4 37.5 13.6 23 15.5 NNW 11 22 6 12 - - 0.0
04/12:30pm 38.7 38.6 13.8 22 15.7 ESE 7 15 4 8 - - 0.0
04/12:00pm 39.2 39.3 15.6 25 15.2 NNE 9 32 5 17 - - 0.0
04/11:30am 36.6 36.8 15.7 29 13.4 WNW 9 32 5 17 - - 0.0
04/11:00am 37.0 36.5 16.0 28 13.5 N 13 24 7 13 - - 0.0
04/10:30am 36.1 36.1 16.3 31 12.8 NNW 11 20 6 11 - - 0.0
04/10:00am 36.0 36.0 16.2 31 12.8 N 11 26 6 14 - - 0.0
04/09:30am 34.9 34.5 15.3 31 12.4 WNW 11 19 6 10 - - 0.0
04/09:00am 34.4 34.0 15.3 31 12.1 NW 11 17 6 9 - - 0.0
04/08:30am 33.8 32.8 15.7 33 11.5 NNW 15 20 8 11 - - 0.0
04/08:00am 33.3 32.0 14.8 32 11.6 NW 15 20 8 11 - - 0.0
04/07:30am 32.6 31.8 11.7 28 12.5 N 7 9 4 5 - - 0.0
04/07:00am 31.4 30.6 11.7 29 11.7 N 7 13 4 7 - - 0.0
04/06:30am 30.6 29.7 11.5 30 11.3 NNW 7 9 4 5 - - 0.0
04/06:00am 30.2 29.4 11.7 32 10.9 N 7 9 4 5 - - 0.0
04/05:30am 30.0 29.1 11.5 32 10.9 ENE 7 9 4 5 - - 0.0
04/05:00am 30.1 29.3 11.6 32 10.9 ENE 7 9 4 5 - - 0.0
04/04:30am 30.7 30.1 11.6 31 11.3 ENE 6 9 3 5 - - 0.0
04/04:00am 31.1 30.4 12.0 31 11.4 NE 7 9 4 5 - - 0.0
04/03:30am 30.9 30.3 11.8 31 11.3 ENE 6 7 3 4 - - 0.0
04/03:00am 31.7 31.2 12.0 30 11.8 ENE 6 6 3 3 - - 0.0
04/02:30am 32.0 31.6 12.3 30 11.8 ENE 6 7 3 4 - - 0.0
04/02:00am 32.3 31.8 12.0 29 12.2 NE 6 7 3 4 - - 0.0
04/01:30am 33.1 32.6 12.1 27 12.6 NE 6 6 3 3 - - 0.0
04/01:00am 32.8 32.1 11.9 28 12.5 NE 7 11 4 6 - - 0.0
04/12:30am 32.9 32.4 12.5 29 12.3 E 7 13 4 7 - - 0.0
04/12:00am 32.7 32.3 12.9 30 12.0 ENE 7 7 4 4 - - 0.0
 
Date/Time
EST
Temp
°C
App
Temp
°C
Dew
Point
°C
Rel
Hum
%
Delta-T
°C
Wind Press
QNH
hPa
Press
MSL
hPa
Rain since
9am
mm
Dir  Spd
km/h
Gust
km/h
Spd
kts
Gust
kts
03/11:30pm 32.4 33.1 12.1 29 12.2 CALM 0 0 0 0 - - 0.0
03/11:00pm 33.4 34.0 11.9 27 12.9 CALM 0 0 0 0 - - 0.0
03/10:30pm 34.0 34.6 11.8 26 13.3 CALM 0 0 0 0 - - 0.0
03/10:00pm 35.0 34.5 12.0 25 13.9 NE 6 6 3 3 - - 0.0
03/09:30pm 36.3 35.6 11.9 23 14.8 NE 7 9 4 5 - - 0.0
03/09:00pm 37.2 36.1 11.9 22 15.4 NE 9 13 5 7 - - 0.0
03/08:30pm 37.8 36.8 12.4 22 15.6 NE 9 17 5 9 - - 0.0
03/08:00pm 38.3 36.7 11.4 20 16.3 NE 11 20 6 11 - - 0.0
03/07:30pm 38.8 36.3 11.0 19 16.8 ENE 15 24 8 13 - - 0.0
03/07:00pm 39.4 36.4 10.7 18 17.3 NE 17 24 9 13 - - 0.0
03/06:30pm 40.0 36.7 9.4 16 18.2 NE 17 24 9 13 - - 0.0
03/06:00pm 40.7 37.6 9.0 15 18.8 ENE 15 28 8 15 - - 0.0
03/05:30pm 40.7 37.3 9.0 15 18.8 ENE 17 26 9 14 - - 0.0
03/05:00pm 41.3 38.5 8.5 14 19.4 ENE 13 28 7 15 - - 0.0
03/04:30pm 41.6 37.5 6.4 12 20.2 NE 17 32 9 17 - - 0.0
03/04:00pm 41.6 37.5 6.4 12 20.2 ENE 17 35 9 19 - - 0.0
03/03:30pm 41.3 37.2 6.2 12 20.0 E 17 32 9 17 - - 0.0
03/03:00pm 41.9 37.3 5.4 11 20.7 E 19 28 10 15 - - 0.0
03/02:30pm 41.3 36.8 6.2 12 20.0 E 19 32 10 17 - - 0.0
03/02:00pm 41.8 36.2 5.3 11 20.6 ENE 24 39 13 21 - - 0.0
03/01:30pm 41.6 37.0 6.4 12 20.2 E 20 39 11 21 - - 0.0
03/01:00pm 41.1 38.2 8.3 14 19.3 ESE 13 26 7 14 - - 0.0
03/12:30pm 41.0 39.0 10.2 16 18.6 SE 11 22 6 12 - - 0.0
03/12:00pm 39.5 36.4 9.0 16 18.0 ENE 15 28 8 15 - - 0.0
03/11:30am 39.1 37.6 12.0 20 16.7 NE 11 24 6 13 - - 0.0
03/11:00am 37.9 36.6 12.5 22 15.7 NNE 11 26 6 14 - - 0.0
03/10:30am 37.7 36.6 13.0 23 15.3 NNE 11 19 6 10 - - 0.0
03/10:00am 37.0 34.9 12.4 23 15.1 NNE 15 22 8 12 - - 0.0
03/09:30am 36.4 34.4 12.6 24 14.6 NNE 15 24 8 13 - - 0.0
03/09:00am 34.9 36.0 17.2 35 11.5 NNW 7 17 4 9 - - 0.0
03/08:30am 33.8 35.4 18.3 39 10.2 N 7 11 4 6 - - 0.0
03/08:00am 32.7 34.6 18.5 43 9.4 N 6 7 3 4 - - 0.0
03/07:30am 31.4 34.1 18.7 46 8.4 N 2 7 1 4 - - 0.0
03/07:00am 30.0 32.5 18.1 49 7.7 SE 2 4 1 2 - - 0.0
03/06:30am 29.0 30.8 17.5 49 7.4 NE 4 6 2 3 - - 0.0
03/06:00am 28.1 29.2 16.7 50 7.2 NE 6 11 3 6 - - 0.0
03/05:30am 29.1 30.4 17.0 48 7.7 N 6 7 3 4 - - 0.0
03/05:00am 29.6 30.2 15.7 43 8.7 N 7 11 4 6 - - 0.0
03/04:30am 30.2 30.0 14.7 39 9.6 NNE 9 11 5 6 - - 0.0
03/04:00am 30.4 29.9 12.8 34 10.6 N 7 9 4 5 - - 0.0
03/03:30am 30.9 30.3 12.3 32 11.1 NNE 7 11 4 6 - - 0.0
03/03:00am 31.3 30.3 11.1 29 11.9 NNE 7 9 4 5 - - 0.0
03/02:30am 31.1 30.1 11.0 29 11.8 NE 7 11 4 6 - - 0.0
03/02:00am 31.1 30.2 11.5 30 11.6 ENE 7 9 4 5 - - 0.0
03/01:30am 31.2 30.5 12.1 31 11.4 ENE 7 9 4 5 - - 0.0
03/01:00am 32.0 31.2 12.8 31 11.6 ENE 9 11 5 6 - - 0.0
03/12:30am 31.9 31.8 13.2 32 11.4 NE 6 7 3 4 - - 0.0
03/12:00am 32.5 32.0 12.7 30 12.0 ENE 7 7 4 4 - - 0.0
 
Date/Time
EST
Temp
°C
App
Temp
°C
Dew
Point
°C
Rel
Hum
%
Delta-T
°C
Wind Press
QNH
hPa
Press
MSL
hPa
Rain since
9am
mm
Dir  Spd
km/h
Gust
km/h
Spd
kts
Gust
kts
02/11:30pm 33.2 32.9 12.8 29 12.4 NE 6 7 3 4 - - 0.0
02/11:00pm 33.4 33.0 12.9 28 12.5 ENE 7 9 4 5 - - 0.0
02/10:30pm 33.7 33.2 12.7 28 12.8 ENE 7 9 4 5 - - 0.0
02/10:00pm 34.2 33.8 12.5 27 13.2 ENE 6 9 3 5 - - 0.0
02/09:30pm 34.7 34.1 12.4 26 13.6 ENE 7 7 4 4 - - 0.0
02/09:00pm 34.9 35.3 12.5 25 13.7 N 2 4 1 2 - - 0.0
02/08:30pm 36.1 36.1 12.3 24 14.5 N 4 6 2 3 - - 0.0
02/08:00pm 36.7 36.2 12.2 23 15.0 N 6 6 3 3 - - 0.0
02/07:30pm 37.0 36.6 13.1 24 14.8 N 7 9 4 5 - - 0.0
02/07:00pm 37.8 37.4 13.1 23 15.3 NW 7 13 4 7 - - 0.0
02/06:30pm 38.1 38.0 13.3 22 15.5 NW 6 7 3 4 - - 0.0
02/06:00pm 37.1 35.7 14.4 26 14.3 SW 15 19 8 10 - - 0.0
02/05:30pm 38.0 37.2 13.9 24 15.1 E 11 33 6 18 - - 0.0
02/05:00pm 41.3 39.4 10.4 16 18.7 E 11 19 6 10 - - 0.0
02/04:30pm 40.7 39.4 10.0 16 18.5 SW 7 13 4 7 - - 0.0

Other formats

Comma delimited format used in spreadsheet applications
http://www.bom.gov.au/fwo/IDQ60801/IDQ60801.94347.axf

JavaScript Object Notation format (JSON) in row-major order
http://www.bom.gov.au/fwo/IDQ60801/IDQ60801.94347.json

Data quality

Most of these data are generated automatically and are frequently updated. Quality checks on data are not normally performed. It is possible for incorrect values to appear. Refer to information at About Latest Weather Observations and please check the disclaimer before using these data.